Trans Sea — 9HA2564 — position and weather

sailwx.info

Track history (hours):
 
Tides and Currents Weather Stations Pressure Air Temp Water Temp Dewpoint Dewpoint Depression Visibility Wind Speed Wind Dir Waves Ship Positions

Trans Sea

Last reported at 2017-Apr-25 11:17 UTC. Time now 2017-Apr-25 20:27 UTC.
Position N 36°24' W 001°55'.

Length 107 m; draft 6.6 m.

Type: Ship (hazmat cat B). MMSI: 248887000.

Date/timePositionNaut miles runAvg speedWind from/ knotsBaromVisibWave heightAir tempDewpointWater temp
2017-Apr-25 11:17N 36°24' W 001°55'15412.5
2017-Apr-24 22:57N 36°07' W 005°05'612.9
2017-Apr-24 22:30N 36°06' W 005°12'612.6
2017-Apr-24 22:00N 36°05' W 005°20'5 9.2
2017-Apr-24 21:30N 36°08' W 005°24'2 3.9
2017-Apr-24 21:00N 36°10' W 005°24'0 0.1
2017-Apr-24 20:30N 36°10' W 005°24'0 0.0
2017-Apr-24 20:00N 36°10' W 005°24'0 0.0
2017-Apr-24 19:30N 36°10' W 005°24'0 0.0
2017-Apr-24 18:57N 36°10' W 005°24'0 0.0
2017-Apr-24 18:30N 36°10' W 005°24'0 0.0
2017-Apr-24 18:00N 36°10' W 005°24'0 0.0
2017-Apr-24 17:30N 36°10' W 005°24'0 0.0
2017-Apr-24 17:00N 36°10' W 005°24'0 0.0
2017-Apr-24 16:30N 36°10' W 005°24'0 0.0
2017-Apr-24 16:00N 36°10' W 005°24'0 0.0
2017-Apr-24 15:30N 36°10' W 005°24'2 3.5
2017-Apr-24 15:01N 36°09' W 005°24'5 9.5
2017-Apr-24 14:30N 36°05' W 005°20'2 1.5
2017-Apr-24 13:30N 36°04' W 005°21'2 4.2
2017-Apr-24 13:00N 36°03' W 005°24'1 1.9
2017-Apr-24 12:31N 36°03' W 005°25'1 1.4
2017-Apr-24 12:00N 36°03' W 005°24'3 6.0
2017-Apr-24 11:30N 35°60' W 005°25'510.8
2017-Apr-24 11:00N 35°57' W 005°30'511.0
2017-Apr-24 10:30N 35°55' W 005°36'510.0
2017-Apr-24 10:00N 35°55' W 005°43'5 9.2
2017-Apr-24 09:30N 35°55' W 005°48'14711.3
2017-Apr-23 20:31N 36°23' W 008°47'211.8
2017-Apr-23 20:20N 36°24' W 008°49'411.7
2017-Apr-23 20:00N 36°25' W 008°54'611.7
2017-Apr-23 19:30N 36°26' W 009°01'2011.5
2017-Apr-23 17:47N 36°33' W 009°24'411.7
2017-Apr-23 17:29N 36°36' W 009°27'611.7
2017-Apr-23 17:00N 36°40' W 009°32'3411.5
2017-Apr-23 14:00N 37°13' W 009°45'612.0
2017-Apr-23 13:30N 37°18' W 009°47'611.9
2017-Apr-23 13:00N 37°24' W 009°49'611.9
2017-Apr-23 12:30N 37°30' W 009°51'611.9
2017-Apr-23 12:00N 37°36' W 009°52'612.1
2017-Apr-23 11:30N 37°42' W 009°54'712.1
2017-Apr-23 10:56N 37°48' W 009°56'512.2
2017-Apr-23 10:30N 37°54' W 009°57'612.1
2017-Apr-23 10:00N 37°59' W 009°59'611.8
2017-Apr-23 09:30N 38°05' W 010°01'612.3
2017-Apr-23 09:00N 38°11' W 010°03'612.1
2017-Apr-23 08:30N 38°17' W 010°04'612.3
2017-Apr-23 08:00N 38°23' W 010°06'612.3
2017-Apr-23 07:31N 38°29' W 010°08'612.1
2017-Apr-23 07:00N 38°35' W 010°10'612.1
2017-Apr-23 06:30N 38°41' W 010°11'611.8
2017-Apr-23 06:00N 38°47' W 010°12'612.0
2017-Apr-23 05:30N 38°53' W 010°11'612.1
2017-Apr-23 05:00N 38°58' W 010°08'611.8
2017-Apr-23 04:30N 39°03' W 010°05'611.7
2017-Apr-23 04:00N 39°08' W 009°60'611.8
2017-Apr-23 03:30N 39°13' W 009°56'611.7
2017-Apr-23 03:00N 39°18' W 009°52'611.8
2017-Apr-23 02:30N 39°23' W 009°48'611.7
2017-Apr-23 02:01N 39°29' W 009°45'611.4
2017-Apr-23 01:30N 39°34' W 009°42'611.9
2017-Apr-23 00:58N 39°39' W 009°38'1511.9
2017-Apr-22 23:43N 39°52' W 009°28'311.9
2017-Apr-22 23:30N 39°55' W 009°27'  
2017-Apr-19 01:49N 49°58' W 002°58'10312.2
2017-Apr-18 17:22N 50°27' W 000°24'513.2
2017-Apr-18 17:00N 50°28' W 000°16'713.0
2017-Apr-18 16:29N 50°30' W 000°06'612.8
2017-Apr-18 16:00N 50°32' E 000°03'612.5
2017-Apr-18 15:30N 50°34' E 000°13'1112.2
2017-Apr-18 14:37N 50°36' E 000°29'211.9
2017-Apr-18 14:29N 50°37' E 000°31'1211.6
2017-Apr-18 13:29N 50°43' E 000°47'1712.3
2017-Apr-18 12:04N 50°54' E 001°08'313.4
2017-Apr-18 11:50N 50°56' E 001°12'413.8
2017-Apr-18 11:30N 50°59' E 001°17'714.4
2017-Apr-18 11:00N 51°03' E 001°27'715.0
2017-Apr-18 10:31N 51°08' E 001°36'714.3
2017-Apr-18 10:01N 51°13' E 001°44'713.4
2017-Apr-18 09:31N 51°19' E 001°50'612.9
2017-Apr-18 09:00N 51°24' E 001°55'4 8.7
2017-Apr-18 08:30N 51°25' E 002°02'511.0
2017-Apr-18 08:00N 51°23' E 002°09'510.8
2017-Apr-18 07:30N 51°21' E 002°17'510.9
2017-Apr-18 07:01N 51°22' E 002°26'510.2
2017-Apr-18 06:30N 51°23' E 002°34'510.2
2017-Apr-18 06:01N 51°22' E 002°42'4 8.2
2017-Apr-18 05:30N 51°22' E 002°49'510.1
2017-Apr-18 05:00N 51°23' E 002°57'510.0
2017-Apr-18 04:30N 51°24' E 003°04'5 9.4
2017-Apr-18 04:00N 51°24' E 003°12'5 9.3
2017-Apr-18 03:30N 51°24' E 003°19'5 9.1
2017-Apr-18 03:00N 51°25' E 003°27'5 9.6
2017-Apr-18 02:28N 51°26' E 003°35'5 9.6
2017-Apr-18 01:59N 51°26' E 003°42'510.3
2017-Apr-18 01:30N 51°21' E 003°46'0 0.1
2017-Apr-17 19:58N 51°21' E 003°46'0 0.0
2017-Apr-17 19:28N 51°21' E 003°46'0 0.0
2017-Apr-17 18:58N 51°21' E 003°46'0 0.0
2017-Apr-17 18:22N 51°21' E 003°46'0 0.0
2017-Apr-17 17:28N 51°21' E 003°46'0 0.0
2017-Apr-17 16:58N 51°21' E 003°46'0 0.0
2017-Apr-17 16:28N 51°21' E 003°46'0 0.0
2017-Apr-17 15:58N 51°21' E 003°46'0 0.0
2017-Apr-17 15:28N 51°21' E 003°46'0 0.0
2017-Apr-17 14:58N 51°21' E 003°46'0 0.0
2017-Apr-17 14:28N 51°21' E 003°46'0 0.0
2017-Apr-17 13:28N 51°21' E 003°46'0 0.0
2017-Apr-17 12:58N 51°21' E 003°46'0 0.0
2017-Apr-17 12:28N 51°21' E 003°46'0 0.0
2017-Apr-17 11:58N 51°21' E 003°46'0 0.0
2017-Apr-17 11:28N 51°21' E 003°46'0 0.0
2017-Apr-17 10:52N 51°21' E 003°46'0 0.0
2017-Apr-17 10:28N 51°21' E 003°46'0 0.0
2017-Apr-17 09:52N 51°21' E 003°46'0 0.0
2017-Apr-17 09:22N 51°21' E 003°46'0 0.0
2017-Apr-17 08:58N 51°21' E 003°46'0 0.0
2017-Apr-17 08:28N 51°21' E 003°46'0 0.0
2017-Apr-17 07:58N 51°21' E 003°46'0 0.0
2017-Apr-17 07:22N 51°21' E 003°46'0 0.0
2017-Apr-17 06:52N 51°21' E 003°46'0 0.0
2017-Apr-17 06:28N 51°21' E 003°46'0 0.0
2017-Apr-17 05:58N 51°21' E 003°46'0 0.0
2017-Apr-17 05:28N 51°21' E 003°46'0 0.0
2017-Apr-17 04:58N 51°21' E 003°46'0 0.0
2017-Apr-17 04:28N 51°21' E 003°46'0 0.0
2017-Apr-17 03:52N 51°21' E 003°46'0 0.0
2017-Apr-17 03:28N 51°21' E 003°46'0 0.0
2017-Apr-17 02:58N 51°21' E 003°46'1 2.2
2017-Apr-17 02:30N 51°21' E 003°48'4 9.0
2017-Apr-17 02:00N 51°22' E 003°55'5 9.3
2017-Apr-17 01:30N 51°26' E 003°59'4 8.6
2017-Apr-17 01:00N 51°23' E 004°03'510.1
2017-Apr-17 00:30N 51°24' E 004°11'611.2
2017-Apr-17 00:01N 51°19' E 004°16'3 5.5
2017-Apr-16 23:30N 51°17' E 004°15'0 0.0
2017-Apr-16 23:00N 51°17' E 004°15'0 1.0
2017-Apr-16 22:30N 51°16' E 004°14'1 0.0
2017-Apr-16 00:37N 51°17' E 004°14'0 0.2
2017-Apr-16 00:26N 51°17' E 004°14'1 1.7
2017-Apr-16 00:00N 51°17' E 004°15'0 0.4
2017-Apr-15 23:30N 51°17' E 004°15'2 3.1
2017-Apr-15 23:00N 51°18' E 004°16'3 5.6
2017-Apr-15 22:30N 51°21' E 004°17'0 0.6
2017-Apr-15 22:00N 51°21' E 004°18'2 3.7
2017-Apr-15 21:30N 51°19' E 004°19'  
Track history (hours):
 
Tides and Currents Weather Stations Pressure Air Temp Water Temp Dewpoint Dewpoint Depression Visibility Wind Speed Wind Dir Waves Ship Positions

Trans Sea

Last reported at 2017-Apr-25 11:17 UTC. Time now 2017-Apr-25 20:27 UTC.
Position N 36°24' W 001°55'.

Length 107 m; draft 6.6 m.

Type: Ship (hazmat cat B). MMSI: 248887000.

Date/timePositionNaut miles runAvg speedWind from/ knotsBaromVisibWave heightAir tempDewpointWater temp
2017-Apr-25 11:17N 36°24' W 001°55'15412.5
2017-Apr-24 22:57N 36°07' W 005°05'612.9
2017-Apr-24 22:30N 36°06' W 005°12'612.6
2017-Apr-24 22:00N 36°05' W 005°20'5 9.2
2017-Apr-24 21:30N 36°08' W 005°24'2 3.9
2017-Apr-24 21:00N 36°10' W 005°24'0 0.1
2017-Apr-24 20:30N 36°10' W 005°24'0 0.0
2017-Apr-24 20:00N 36°10' W 005°24'0 0.0
2017-Apr-24 19:30N 36°10' W 005°24'0 0.0
2017-Apr-24 18:57N 36°10' W 005°24'0 0.0
2017-Apr-24 18:30N 36°10' W 005°24'0 0.0
2017-Apr-24 18:00N 36°10' W 005°24'0 0.0
2017-Apr-24 17:30N 36°10' W 005°24'0 0.0
2017-Apr-24 17:00N 36°10' W 005°24'0 0.0
2017-Apr-24 16:30N 36°10' W 005°24'0 0.0
2017-Apr-24 16:00N 36°10' W 005°24'0 0.0
2017-Apr-24 15:30N 36°10' W 005°24'2 3.5
2017-Apr-24 15:01N 36°09' W 005°24'5 9.5
2017-Apr-24 14:30N 36°05' W 005°20'2 1.5
2017-Apr-24 13:30N 36°04' W 005°21'2 4.2
2017-Apr-24 13:00N 36°03' W 005°24'1 1.9
2017-Apr-24 12:31N 36°03' W 005°25'1 1.4
2017-Apr-24 12:00N 36°03' W 005°24'3 6.0
2017-Apr-24 11:30N 35°60' W 005°25'510.8
2017-Apr-24 11:00N 35°57' W 005°30'511.0
2017-Apr-24 10:30N 35°55' W 005°36'510.0
2017-Apr-24 10:00N 35°55' W 005°43'5 9.2
2017-Apr-24 09:30N 35°55' W 005°48'14711.3
2017-Apr-23 20:31N 36°23' W 008°47'211.8
2017-Apr-23 20:20N 36°24' W 008°49'411.7
2017-Apr-23 20:00N 36°25' W 008°54'611.7
2017-Apr-23 19:30N 36°26' W 009°01'2011.5
2017-Apr-23 17:47N 36°33' W 009°24'411.7
2017-Apr-23 17:29N 36°36' W 009°27'611.7
2017-Apr-23 17:00N 36°40' W 009°32'3411.5
2017-Apr-23 14:00N 37°13' W 009°45'612.0
2017-Apr-23 13:30N 37°18' W 009°47'611.9
2017-Apr-23 13:00N 37°24' W 009°49'611.9
2017-Apr-23 12:30N 37°30' W 009°51'611.9
2017-Apr-23 12:00N 37°36' W 009°52'612.1
2017-Apr-23 11:30N 37°42' W 009°54'712.1
2017-Apr-23 10:56N 37°48' W 009°56'512.2
2017-Apr-23 10:30N 37°54' W 009°57'612.1
2017-Apr-23 10:00N 37°59' W 009°59'611.8
2017-Apr-23 09:30N 38°05' W 010°01'612.3
2017-Apr-23 09:00N 38°11' W 010°03'612.1
2017-Apr-23 08:30N 38°17' W 010°04'612.3
2017-Apr-23 08:00N 38°23' W 010°06'612.3
2017-Apr-23 07:31N 38°29' W 010°08'612.1
2017-Apr-23 07:00N 38°35' W 010°10'612.1
2017-Apr-23 06:30N 38°41' W 010°11'611.8
2017-Apr-23 06:00N 38°47' W 010°12'612.0
2017-Apr-23 05:30N 38°53' W 010°11'612.1
2017-Apr-23 05:00N 38°58' W 010°08'611.8
2017-Apr-23 04:30N 39°03' W 010°05'611.7
2017-Apr-23 04:00N 39°08' W 009°60'611.8
2017-Apr-23 03:30N 39°13' W 009°56'611.7
2017-Apr-23 03:00N 39°18' W 009°52'611.8
2017-Apr-23 02:30N 39°23' W 009°48'611.7
2017-Apr-23 02:01N 39°29' W 009°45'611.4
2017-Apr-23 01:30N 39°34' W 009°42'611.9
2017-Apr-23 00:58N 39°39' W 009°38'1511.9
2017-Apr-22 23:43N 39°52' W 009°28'311.9
2017-Apr-22 23:30N 39°55' W 009°27'  
2017-Apr-19 01:49N 49°58' W 002°58'10312.2
2017-Apr-18 17:22N 50°27' W 000°24'513.2
2017-Apr-18 17:00N 50°28' W 000°16'713.0
2017-Apr-18 16:29N 50°30' W 000°06'612.8
2017-Apr-18 16:00N 50°32' E 000°03'612.5
2017-Apr-18 15:30N 50°34' E 000°13'1112.2
2017-Apr-18 14:37N 50°36' E 000°29'211.9
2017-Apr-18 14:29N 50°37' E 000°31'1211.6
2017-Apr-18 13:29N 50°43' E 000°47'1712.3
2017-Apr-18 12:04N 50°54' E 001°08'313.4
2017-Apr-18 11:50N 50°56' E 001°12'413.8
2017-Apr-18 11:30N 50°59' E 001°17'714.4
2017-Apr-18 11:00N 51°03' E 001°27'715.0
2017-Apr-18 10:31N 51°08' E 001°36'714.3
2017-Apr-18 10:01N 51°13' E 001°44'713.4
2017-Apr-18 09:31N 51°19' E 001°50'612.9
2017-Apr-18 09:00N 51°24' E 001°55'4 8.7
2017-Apr-18 08:30N 51°25' E 002°02'511.0
2017-Apr-18 08:00N 51°23' E 002°09'510.8
2017-Apr-18 07:30N 51°21' E 002°17'510.9
2017-Apr-18 07:01N 51°22' E 002°26'510.2
2017-Apr-18 06:30N 51°23' E 002°34'510.2
2017-Apr-18 06:01N 51°22' E 002°42'4 8.2
2017-Apr-18 05:30N 51°22' E 002°49'510.1
2017-Apr-18 05:00N 51°23' E 002°57'510.0
2017-Apr-18 04:30N 51°24' E 003°04'5 9.4
2017-Apr-18 04:00N 51°24' E 003°12'5 9.3
2017-Apr-18 03:30N 51°24' E 003°19'5 9.1
2017-Apr-18 03:00N 51°25' E 003°27'5 9.6
2017-Apr-18 02:28N 51°26' E 003°35'5 9.6
2017-Apr-18 01:59N 51°26' E 003°42'510.3
2017-Apr-18 01:30N 51°21' E 003°46'0 0.1
2017-Apr-17 19:58N 51°21' E 003°46'0 0.0
2017-Apr-17 19:28N 51°21' E 003°46'0 0.0
2017-Apr-17 18:58N 51°21' E 003°46'0 0.0
2017-Apr-17 18:22N 51°21' E 003°46'0 0.0
2017-Apr-17 17:28N 51°21' E 003°46'0 0.0
2017-Apr-17 16:58N 51°21' E 003°46'0 0.0
2017-Apr-17 16:28N 51°21' E 003°46'0 0.0
2017-Apr-17 15:58N 51°21' E 003°46'0 0.0
2017-Apr-17 15:28N 51°21' E 003°46'0 0.0
2017-Apr-17 14:58N 51°21' E 003°46'0 0.0
2017-Apr-17 14:28N 51°21' E 003°46'0 0.0
2017-Apr-17 13:28N 51°21' E 003°46'0 0.0
2017-Apr-17 12:58N 51°21' E 003°46'0 0.0
2017-Apr-17 12:28N 51°21' E 003°46'0 0.0
2017-Apr-17 11:58N 51°21' E 003°46'0 0.0
2017-Apr-17 11:28N 51°21' E 003°46'0 0.0
2017-Apr-17 10:52N 51°21' E 003°46'0 0.0
2017-Apr-17 10:28N 51°21' E 003°46'0 0.0
2017-Apr-17 09:52N 51°21' E 003°46'0 0.0
2017-Apr-17 09:22N 51°21' E 003°46'0 0.0
2017-Apr-17 08:58N 51°21' E 003°46'0 0.0
2017-Apr-17 08:28N 51°21' E 003°46'0 0.0
2017-Apr-17 07:58N 51°21' E 003°46'0 0.0
2017-Apr-17 07:22N 51°21' E 003°46'0 0.0
2017-Apr-17 06:52N 51°21' E 003°46'0 0.0
2017-Apr-17 06:28N 51°21' E 003°46'0 0.0
2017-Apr-17 05:58N 51°21' E 003°46'0 0.0
2017-Apr-17 05:28N 51°21' E 003°46'0 0.0
2017-Apr-17 04:58N 51°21' E 003°46'0 0.0
2017-Apr-17 04:28N 51°21' E 003°46'0 0.0
2017-Apr-17 03:52N 51°21' E 003°46'0 0.0
2017-Apr-17 03:28N 51°21' E 003°46'0 0.0
2017-Apr-17 02:58N 51°21' E 003°46'1 2.2
2017-Apr-17 02:30N 51°21' E 003°48'4 9.0
2017-Apr-17 02:00N 51°22' E 003°55'5 9.3
2017-Apr-17 01:30N 51°26' E 003°59'4 8.6
2017-Apr-17 01:00N 51°23' E 004°03'510.1
2017-Apr-17 00:30N 51°24' E 004°11'611.2
2017-Apr-17 00:01N 51°19' E 004°16'3 5.5
2017-Apr-16 23:30N 51°17' E 004°15'0 0.0
2017-Apr-16 23:00N 51°17' E 004°15'0 1.0
2017-Apr-16 22:30N 51°16' E 004°14'1 0.0
2017-Apr-16 00:37N 51°17' E 004°14'0 0.2
2017-Apr-16 00:26N 51°17' E 004°14'1 1.7
2017-Apr-16 00:00N 51°17' E 004°15'0 0.4
2017-Apr-15 23:30N 51°17' E 004°15'2 3.1
2017-Apr-15 23:00N 51°18' E 004°16'3 5.6
2017-Apr-15 22:30N 51°21' E 004°17'0 0.6
2017-Apr-15 22:00N 51°21' E 004°18'2 3.7
2017-Apr-15 21:30N 51°19' E 004°19'  

Dump ship's entire track history